CYKZ/YKZ METAR and TAF weather

Enter ICAO airport designator
Station Type Date Time Source
CYKZ METAR 2019/01/03 09:00 UTC NOAA

CYKZ 030900Z 25004KT 15SM SCT040 M03/M05 A2985 RMK SC3 LAST STFD OBS FAREWELL SLP118


Station Type Date Time Source
CYKZ Decoded METAR 2019/01/03 09:00 UTC NOAA

Toronto Buttonville, Canada (CYKZ) 43-52N 079-22W
Jan 03, 2019 - 04:00 AM EST / 2019.01.03 0900 UTC
Wind: from the WSW (250 degrees) at 5 MPH (4 KT):0
Visibility: 15 mile(s):0
Sky conditions: partly cloudy
Temperature: 26 F (-3 C)
Windchill: 19 F (-7 C):1
Dew Point: 23 F (-5 C)
Relative Humidity: 86%
Pressure (altimeter): 29.85 in. Hg (1010 hPa)
ob: CYKZ 030900Z 25004KT 15SM SCT040 M03/M05 A2985 RMK SC3 LAST STFD OBS FAREWELL SLP118
cycle: 9

Station Type Date Time Source
CYKZ TAF 2019/01/03 07:24 UTC NOAA

TAF
AMD TAF
AMD CYKZ 030722Z 0307/0318 31005KT 5SM -SN OVC015
TEMPO 0307/0308 P6SM NSW SCT015 OVC025
FM030800 28010KT P6SM SCT012 BKN025
TEMPO 0308/0309 P6SM -SN BKN012 OVC025
FM030900 26012G22KT P6SM BKN020
TEMPO 0309/0312 BKN025
FM031200 26012G22KT P6SM SCT025
TEMPO 0312/0317 BKN025
FM031700 25015G25KT P6SM BKN025
RMK NXT FCST BY 031200Z


Example: see airport list